Time;durP1;ratioP1;P1;durP2;ratioP2;P2;SDS_P1;SDS_P2;PMS_P1;PMS_P2;Temp;Humidity;BMP_temperature;BMP_pressure;BME280_temperature;BME280_humidity;BME280_pressure;Samples;Min_cycle;Max_cycle;Signal;HPM_P1;HPM_P2
2022/01/16 00:06:17;;;;;;;39.35;16.85;;;0.80;95.30;;;;;;5088872;28;20209;-71
2022/01/16 00:08:43;;;;;;;41.35;16.88;;;0.80;95.50;;;;;;5091327;28;20232;-71
2022/01/16 00:11:09;;;;;;;44.05;17.13;;;0.80;95.60;;;;;;5089113;28;20223;-71
2022/01/16 00:13:35;;;;;;;40.37;17.90;;;0.70;95.70;;;;;;5090338;28;20190;-74
2022/01/16 00:16:00;;;;;;;43.67;16.63;;;0.70;95.80;;;;;;5090412;28;20452;-74
2022/01/16 00:18:29;;;;;;;33.47;16.40;;;0.70;95.90;;;;;;5091172;28;20432;-75
2022/01/16 00:20:55;;;;;;;48.92;19.00;;;0.70;95.80;;;;;;5090435;28;20175;-73
2022/01/16 00:23:26;;;;;;;45.55;18.70;;;0.60;95.80;;;;;;5090221;28;20179;-74
2022/01/16 00:25:54;;;;;;;49.85;20.05;;;0.50;95.80;;;;;;5090205;28;20209;-72
2022/01/16 00:28:21;;;;;;;42.55;18.88;;;0.60;96.10;;;;;;5090372;28;20652;-72
2022/01/16 00:30:48;;;;;;;47.35;18.85;;;0.60;96.30;;;;;;5090831;28;20211;-73
2022/01/16 00:33:14;;;;;;;49.40;19.38;;;0.70;96.50;;;;;;5090839;28;20167;-73
2022/01/16 00:35:40;;;;;;;51.70;20.60;;;0.70;96.50;;;;;;5090108;28;20592;-73
2022/01/16 00:38:06;;;;;;;45.35;18.80;;;0.70;96.30;;;;;;5090440;28;20186;-73
2022/01/16 00:40:32;;;;;;;45.50;19.00;;;0.60;96.30;;;;;;5089902;28;20179;-72
2022/01/16 00:42:58;;;;;;;52.97;20.00;;;0.60;96.30;;;;;;5090274;28;20214;-71
2022/01/16 00:45:25;;;;;;;59.03;21.23;;;0.60;96.40;;;;;;5090084;28;20219;-75
2022/01/16 00:47:51;;;;;;;48.33;18.70;;;0.50;96.50;;;;;;5090385;28;20641;-73
2022/01/16 00:50:17;;;;;;;47.38;19.35;;;0.50;96.50;;;;;;5091211;28;20175;-74
2022/01/16 00:52:43;;;;;;;47.10;19.07;;;0.50;96.50;;;;;;5088787;28;20703;-74
2022/01/16 00:55:09;;;;;;;55.83;20.50;;;0.50;96.50;;;;;;5090391;28;20198;-73
2022/01/16 00:57:35;;;;;;;54.28;21.45;;;0.50;96.70;;;;;;5088876;28;20418;-73
2022/01/16 01:00:01;;;;;;;44.10;18.67;;;0.60;96.80;;;;;;5090498;28;20182;-73
2022/01/16 01:02:26;;;;;;;49.87;20.57;;;0.70;97.10;;;;;;5089598;28;20179;-74
2022/01/16 01:04:52;;;;;;;45.57;20.07;;;0.80;97.10;;;;;;5087013;28;20414;-73
2022/01/16 01:07:18;;;;;;;50.92;20.35;;;0.80;97.00;;;;;;5090152;28;20191;-72
2022/01/16 01:09:44;;;;;;;46.63;18.70;;;0.90;97.00;;;;;;5090277;28;20253;-72
2022/01/16 01:12:13;;;;;;;46.38;20.05;;;0.90;96.80;;;;;;5088296;28;21059;-72
2022/01/16 01:15:03;;;;;;;52.38;18.67;;;0.90;96.70;;;;;;5089833;28;20183;-73
2022/01/16 01:17:27;;;;;;;51.50;17.90;;;1.00;96.60;;;;;;5090016;28;20265;-73
2022/01/16 01:19:53;;;;;;;47.83;19.70;;;1.00;96.30;;;;;;5089113;28;20258;-73
2022/01/16 01:22:19;;;;;;;59.20;19.60;;;1.00;96.20;;;;;;5088295;28;20759;-73
2022/01/16 01:24:45;;;;;;;56.00;20.40;;;1.00;96.10;;;;;;5089127;28;20183;-73
2022/01/16 01:27:21;;;;;;;48.37;18.00;;;1.10;95.90;;;;;;5090121;28;20258;-73
2022/01/16 01:29:54;;;;;;;44.75;18.98;;;1.10;95.70;;;;;;5090325;28;20170;-72
2022/01/16 01:32:20;;;;;;;41.70;18.83;;;1.10;95.40;;;;;;5089600;28;20199;-71
2022/01/16 01:34:46;;;;;;;44.67;17.83;;;1.10;95.40;;;;;;5090702;28;20199;-73
2022/01/16 01:37:11;;;;;;;42.53;16.60;;;1.10;95.40;;;;;;5089772;28;20186;-74
2022/01/16 01:39:37;;;;;;;48.60;19.43;;;1.10;95.40;;;;;;5090668;28;20271;-74
2022/01/16 01:42:08;;;;;;;49.80;20.70;;;1.10;95.40;;;;;;5093404;28;20187;-73
2022/01/16 01:52:50;;;;;;;48.67;21.38;;;1.20;95.30;;;;;;5093033;28;20206;-73
2022/01/16 01:55:16;;;;;;;60.17;20.85;;;1.10;95.20;;;;;;5093785;28;20244;-73
2022/01/16 01:57:42;;;;;;;48.35;20.58;;;1.20;95.30;;;;;;5100609;28;20264;-72
2022/01/16 02:00:08;;;;;;;50.53;19.80;;;1.20;95.20;;;;;;5102347;28;20244;-73
2022/01/16 02:02:47;;;;;;;45.97;18.90;;;1.10;95.10;;;;;;5094495;28;20190;-73
2022/01/16 02:05:13;;;;;;;45.55;19.73;;;1.10;95.00;;;;;;5090557;28;20764;-73
2022/01/16 02:07:38;;;;;;;52.80;22.33;;;1.10;95.00;;;;;;5091956;28;20325;-73
2022/01/16 02:10:05;;;;;;;56.47;21.70;;;1.00;95.10;;;;;;5093082;28;20247;-72
2022/01/16 02:12:33;;;;;;;51.08;21.15;;;1.00;95.20;;;;;;5092884;28;20304;-72
2022/01/16 02:15:07;;;;;;;61.97;21.95;;;1.00;95.30;;;;;;5085206;28;20171;-73
2022/01/16 02:29:04;;;;;;;56.38;20.45;;;1.00;95.50;;;;;;5094773;28;20202;-74
2022/01/16 02:31:26;;;;;;;57.55;23.27;;;1.00;95.60;;;;;;5091083;28;20777;-75
2022/01/16 02:36:45;;;;;;;60.15;22.92;;;0.90;95.50;;;;;;5093310;28;20295;-73
2022/01/16 02:39:13;;;;;;;53.28;22.20;;;0.80;95.60;;;;;;5093402;28;20171;-75
2022/01/16 02:41:41;;;;;;;67.28;25.23;;;0.70;95.80;;;;;;5093405;28;20175;-74
2022/01/16 02:44:31;;;;;;;54.15;23.00;;;0.50;95.90;;;;;;5087830;28;20582;-74
2022/01/16 02:46:58;;;;;;;54.08;21.75;;;0.50;96.20;;;;;;5092138;28;20685;-70
2022/01/16 02:49:32;;;;;;;52.00;22.20;;;0.40;96.50;;;;;;5092288;28;20180;-70
2022/01/16 02:52:09;;;;;;;58.75;22.85;;;0.40;96.60;;;;;;5091716;28;20314;-71
2022/01/16 02:54:37;;;;;;;58.65;24.27;;;0.30;96.70;;;;;;5092429;28;20290;-73
2022/01/16 02:57:05;;;;;;;61.38;25.15;;;0.30;96.90;;;;;;5085456;28;20195;-72
2022/01/16 02:59:31;;;;;;;60.35;23.33;;;0.30;97.00;;;;;;5092136;28;20202;-71
2022/01/16 03:01:57;;;;;;;62.60;23.77;;;0.20;97.10;;;;;;5092059;28;20218;-71
2022/01/16 03:04:23;;;;;;;61.65;24.60;;;0.10;97.20;;;;;;5087501;28;20182;-73
2022/01/16 03:06:48;;;;;;;53.83;21.03;;;0.20;97.50;;;;;;5091733;28;20657;-71
2022/01/16 03:09:16;;;;;;;67.10;24.90;;;0.20;97.60;;;;;;5093368;28;20559;-74
2022/01/16 03:11:48;;;;;;;60.60;25.73;;;0.30;97.70;;;;;;5095128;28;20275;-73
2022/01/16 03:14:17;;;;;;;60.75;23.02;;;0.30;97.70;;;;;;5104132;28;20171;-73
2022/01/16 03:16:47;;;;;;;57.70;23.63;;;0.20;97.70;;;;;;5108171;28;20199;-74
2022/01/16 03:22:02;;;;;;;51.50;21.35;;;0.30;97.60;;;;;;5106935;28;20239;-73
2022/01/16 03:24:41;;;;;;;54.25;23.25;;;0.30;97.60;;;;;;5103360;28;20187;-73
2022/01/16 03:27:09;;;;;;;49.67;21.88;;;0.20;97.50;;;;;;5093096;28;20183;-71
2022/01/16 03:29:36;;;;;;;59.08;22.77;;;0.20;97.50;;;;;;5096821;28;20190;-73
2022/01/16 03:32:06;;;;;;;56.08;22.17;;;0.30;97.50;;;;;;5090260;28;20270;-72
2022/01/16 03:34:32;;;;;;;56.40;23.58;;;0.30;97.50;;;;;;5091569;28;20175;-71
2022/01/16 03:36:58;;;;;;;56.87;23.97;;;0.40;97.60;;;;;;5090132;28;20281;-73
2022/01/16 03:39:23;;;;;;;58.53;23.80;;;0.50;97.50;;;;;;5092263;28;20429;-71
2022/01/16 03:41:50;;;;;;;57.20;22.67;;;0.50;97.40;;;;;;5090902;28;20888;-72
2022/01/16 03:44:16;;;;;;;54.40;23.38;;;0.40;97.20;;;;;;5091636;28;20183;-73
2022/01/16 03:46:43;;;;;;;55.97;22.70;;;0.30;97.10;;;;;;5090737;28;20347;-73
2022/01/16 03:49:14;;;;;;;56.78;23.95;;;0.40;97.10;;;;;;5091443;28;20980;-73
2022/01/16 03:51:42;;;;;;;53.00;22.77;;;0.40;97.00;;;;;;5090990;28;20217;-73
2022/01/16 03:54:10;;;;;;;50.70;23.02;;;0.40;96.90;;;;;;5091421;28;20945;-73
2022/01/16 03:56:36;;;;;;;48.53;22.98;;;0.30;96.70;;;;;;5091400;28;20199;-73
2022/01/16 03:59:02;;;;;;;48.85;21.88;;;0.30;96.70;;;;;;5091394;28;20324;-72
2022/01/16 04:01:28;;;;;;;47.55;20.65;;;0.20;96.60;;;;;;5090148;28;20214;-72
2022/01/16 04:03:55;;;;;;;47.47;22.73;;;0.10;96.60;;;;;;5089224;28;20209;-71
2022/01/16 04:06:22;;;;;;;58.25;24.70;;;0.20;96.60;;;;;;5088964;28;20685;-74
2022/01/16 04:08:49;;;;;;;50.22;20.48;;;0.10;96.60;;;;;;5091689;28;20190;-72
2022/01/16 04:11:16;;;;;;;45.15;21.00;;;0.10;96.60;;;;;;5091081;28;20203;-73
2022/01/16 04:13:50;;;;;;;47.72;20.77;;;0.20;96.70;;;;;;5091179;28;20567;-72
2022/01/16 04:16:17;;;;;;;42.28;20.42;;;0.20;96.80;;;;;;5090676;28;20251;-72
2022/01/16 04:18:42;;;;;;;45.83;21.88;;;0.20;96.60;;;;;;5090985;28;20179;-72
2022/01/16 04:21:08;;;;;;;48.90;22.50;;;0.20;96.60;;;;;;5089254;28;20655;-70
2022/01/16 04:23:34;;;;;;;46.90;21.17;;;0.30;96.70;;;;;;5091337;28;20183;-72
2022/01/16 04:26:00;;;;;;;44.80;19.33;;;0.30;96.80;;;;;;5089751;28;20621;-74
2022/01/16 04:28:25;;;;;;;47.30;19.90;;;0.30;96.80;;;;;;5091385;28;20216;-72
2022/01/16 04:30:52;;;;;;;54.50;23.33;;;0.40;96.80;;;;;;5090892;28;20186;-73
2022/01/16 04:33:18;;;;;;;47.05;20.92;;;0.50;96.70;;;;;;5092771;28;20656;-71
2022/01/16 04:35:44;;;;;;;46.42;22.35;;;0.50;96.60;;;;;;5091151;28;20681;-73
2022/01/16 04:38:10;;;;;;;48.40;19.80;;;0.60;96.50;;;;;;5090852;28;20294;-71
2022/01/16 04:43:47;;;;;;;44.42;20.83;;;0.60;96.30;;;;;;5089904;28;20425;-71
2022/01/16 04:44:03;;;;;;;38.35;19.55;;;0.60;96.00;;;;;;5090191;28;20171;-71
2022/01/16 04:46:10;;;;;;;46.50;20.73;;;0.60;95.80;;;;;;5080948;28;20273;-72
2022/01/16 04:48:36;;;;;;;39.60;19.53;;;0.60;95.60;;;;;;5090321;28;20233;-71
2022/01/16 04:51:01;;;;;;;48.67;21.07;;;0.60;95.30;;;;;;5090166;28;20730;-72
2022/01/16 04:53:27;;;;;;;51.30;20.80;;;0.60;95.20;;;;;;5094399;28;20249;-72
2022/01/16 04:55:53;;;;;;;45.50;20.30;;;0.60;95.20;;;;;;5093924;28;20202;-72
2022/01/16 04:58:21;;;;;;;51.27;21.67;;;0.60;95.10;;;;;;5095841;28;20171;-72
2022/01/16 05:00:46;;;;;;;51.50;20.48;;;0.60;95.10;;;;;;5091597;28;20421;-72
2022/01/16 05:03:12;;;;;;;42.27;20.13;;;0.60;95.10;;;;;;5091944;28;20545;-72
2022/01/16 05:05:38;;;;;;;46.40;20.10;;;0.60;95.00;;;;;;5089807;28;20455;-72
2022/01/16 05:08:04;;;;;;;50.80;21.80;;;0.60;94.90;;;;;;5090294;28;20449;-73
2022/01/16 05:10:30;;;;;;;50.20;21.90;;;0.50;94.80;;;;;;5090897;28;20171;-72
2022/01/16 05:13:14;;;;;;;50.50;22.27;;;0.40;94.80;;;;;;5089539;28;20544;-73
2022/01/16 05:18:24;;;;;;;51.20;21.63;;;0.10;95.10;;;;;;5090241;28;20224;-74
2022/01/16 05:20:50;;;;;;;52.33;21.07;;;0.20;95.40;;;;;;5093330;28;20176;-74
2022/01/16 05:23:15;;;;;;;43.77;20.50;;;0.10;95.40;;;;;;5094136;28;20257;-74
2022/01/16 05:25:41;;;;;;;46.50;18.80;;;0.10;95.50;;;;;;5094107;28;20755;-74
2022/01/16 05:28:07;;;;;;;49.87;21.53;;;0.10;95.70;;;;;;5092922;28;20179;-74
2022/01/16 05:30:33;;;;;;;40.43;19.97;;;0.00;95.80;;;;;;5093830;28;20174;-74
2022/01/16 05:32:58;;;;;;;48.17;21.30;;;-0.10;95.80;;;;;;5093659;28;20293;-74
2022/01/16 05:35:24;;;;;;;46.37;21.50;;;0.00;95.90;;;;;;5093283;28;20195;-72
2022/01/16 05:37:50;;;;;;;43.83;21.63;;;-0.10;95.70;;;;;;5093651;28;20207;-72
2022/01/16 05:40:15;;;;;;;44.20;21.70;;;-0.20;95.60;;;;;;5094540;28;20221;-72
2022/01/16 05:42:41;;;;;;;40.50;20.80;;;-0.30;95.50;;;;;;5094535;28;20244;-73
2022/01/16 05:45:07;;;;;;;52.60;22.80;;;-0.50;95.50;;;;;;5093397;28;20221;-73
2022/01/16 05:47:33;;;;;;;44.58;21.58;;;-0.60;95.80;;;;;;5092610;28;20206;-73
2022/01/16 05:49:59;;;;;;;45.37;20.20;;;-0.60;95.90;;;;;;5093209;28;20203;-73
2022/01/16 05:52:24;;;;;;;51.63;22.47;;;-0.60;96.10;;;;;;5093016;28;20199;-72
2022/01/16 05:54:50;;;;;;;48.93;20.90;;;-0.60;96.20;;;;;;5093198;28;20190;-73
2022/01/16 05:57:16;;;;;;;45.30;20.90;;;-0.70;96.30;;;;;;5093449;28;20255;-72
2022/01/16 05:59:42;;;;;;;44.70;21.13;;;-0.70;96.40;;;;;;5092116;28;20676;-71
2022/01/16 06:02:08;;;;;;;49.22;21.38;;;-0.70;96.40;;;;;;5093876;28;20183;-73
2022/01/16 06:04:33;;;;;;;44.17;20.67;;;-0.70;96.40;;;;;;5098683;28;20175;-73
2022/01/16 06:06:59;;;;;;;49.27;21.40;;;-0.80;96.40;;;;;;5087381;28;20555;-73
2022/01/16 06:09:26;;;;;;;49.78;22.30;;;-0.80;96.40;;;;;;5094112;28;20224;-73
2022/01/16 06:11:53;;;;;;;45.33;21.08;;;-1.00;96.50;;;;;;5093279;28;20239;-72
2022/01/16 06:14:21;;;;;;;49.42;20.50;;;-1.00;96.60;;;;;;5094026;28;20195;-72
2022/01/16 06:16:46;;;;;;;48.05;21.77;;;-1.10;96.80;;;;;;5092875;28;20199;-72
2022/01/16 06:19:12;;;;;;;54.90;23.90;;;-1.00;96.90;;;;;;5093724;28;20543;-72
2022/01/16 06:21:38;;;;;;;52.43;24.40;;;-1.10;97.00;;;;;;5092500;28;20278;-72
2022/01/16 06:24:04;;;;;;;56.93;26.07;;;-1.20;97.00;;;;;;5092939;28;20562;-73
2022/01/16 06:26:30;;;;;;;52.38;22.42;;;-1.20;97.10;;;;;;5091701;28;20267;-72
2022/01/16 06:28:57;;;;;;;55.67;23.10;;;-1.20;97.20;;;;;;5091710;28;20225;-71
2022/01/16 06:31:23;;;;;;;61.63;23.55;;;-1.20;97.30;;;;;;5091890;28;20254;-72
2022/01/16 06:33:50;;;;;;;51.97;22.80;;;-1.20;97.40;;;;;;5092433;28;20175;-72
2022/01/16 06:36:16;;;;;;;52.17;21.77;;;-1.10;97.50;;;;;;5091907;28;20437;-73
2022/01/16 06:38:42;;;;;;;50.67;23.03;;;-1.20;97.40;;;;;;5092425;28;20652;-71
2022/01/16 06:41:09;;;;;;;52.93;21.70;;;-1.20;97.30;;;;;;5087334;28;20433;-73
2022/01/16 06:43:34;;;;;;;49.60;20.83;;;-1.20;97.30;;;;;;5092537;28;20187;-73
2022/01/16 06:46:00;;;;;;;44.60;19.90;;;-1.20;97.20;;;;;;5092113;28;20237;-72
2022/01/16 06:48:26;;;;;;;48.97;20.77;;;-1.20;97.30;;;;;;5093446;28;20176;-72
2022/01/16 06:50:52;;;;;;;45.00;20.40;;;-1.20;97.20;;;;;;5090585;28;20514;-71
2022/01/16 06:53:18;;;;;;;45.70;20.70;;;-1.20;97.10;;;;;;5092384;28;20413;-72
2022/01/16 06:55:44;;;;;;;50.73;23.27;;;-1.20;97.10;;;;;;5090755;28;20203;-71
2022/01/16 06:58:10;;;;;;;46.50;20.63;;;-1.20;97.10;;;;;;5090323;28;21068;-72
2022/01/16 07:00:35;;;;;;;45.73;20.43;;;-1.20;97.10;;;;;;5090774;28;20187;-72
2022/01/16 07:03:01;;;;;;;45.03;20.73;;;-1.10;97.20;;;;;;5091260;28;20697;-72
2022/01/16 07:05:27;;;;;;;38.00;19.83;;;-1.10;97.20;;;;;;5088247;28;20213;-72
2022/01/16 07:07:52;;;;;;;52.87;22.33;;;-1.10;97.20;;;;;;5091533;28;20198;-72
2022/01/16 07:10:18;;;;;;;42.93;21.63;;;-1.10;97.10;;;;;;5090552;28;20186;-73
2022/01/16 07:12:44;;;;;;;42.67;20.53;;;-1.10;96.90;;;;;;5091992;28;20203;-73
2022/01/16 07:15:10;;;;;;;43.33;19.33;;;-1.10;96.80;;;;;;5093108;28;20832;-73
2022/01/16 07:17:36;;;;;;;51.65;21.75;;;-1.00;96.70;;;;;;5093088;28;20179;-73
2022/01/16 07:20:03;;;;;;;42.30;19.73;;;-1.00;96.50;;;;;;5092271;28;20650;-72
2022/01/16 07:22:28;;;;;;;42.17;18.27;;;-1.10;96.20;;;;;;5091500;28;20179;-73
2022/01/16 07:24:54;;;;;;;41.83;19.97;;;-1.10;96.20;;;;;;5091474;28;20179;-71
2022/01/16 07:27:20;;;;;;;43.60;20.30;;;-1.10;96.10;;;;;;5091812;28;20211;-73
2022/01/16 07:29:47;;;;;;;44.40;20.50;;;-1.00;96.10;;;;;;5091424;28;20440;-74
2022/01/16 07:32:12;;;;;;;39.08;19.63;;;-1.00;96.00;;;;;;5091665;28;20202;-73
2022/01/16 07:34:38;;;;;;;49.90;20.90;;;-0.90;95.90;;;;;;5091211;28;20183;-73
2022/01/16 07:37:04;;;;;;;42.67;21.10;;;-1.00;95.60;;;;;;5090365;28;20219;-71
2022/01/16 07:39:30;;;;;;;48.80;21.08;;;-1.00;95.60;;;;;;5092682;28;20439;-72
2022/01/16 07:41:56;;;;;;;38.20;19.10;;;-1.00;95.60;;;;;;5091665;28;20622;-71
2022/01/16 07:44:22;;;;;;;41.53;20.67;;;-1.00;95.50;;;;;;5093225;28;20183;-71
2022/01/16 07:46:47;;;;;;;48.50;21.00;;;-1.00;95.40;;;;;;5092275;28;20797;-73
2022/01/16 07:49:13;;;;;;;42.73;18.17;;;-1.00;95.40;;;;;;5091368;28;20187;-71
2022/01/16 07:51:39;;;;;;;45.83;20.10;;;-0.90;95.50;;;;;;5090105;28;20252;-72
2022/01/16 07:54:04;;;;;;;43.63;21.13;;;-0.90;95.40;;;;;;5084166;28;20171;-72
2022/01/16 07:56:30;;;;;;;42.03;20.53;;;-0.90;95.40;;;;;;5089231;28;20203;-72
2022/01/16 07:58:56;;;;;;;38.87;20.23;;;-0.80;95.40;;;;;;5093199;28;20533;-74
2022/01/16 08:01:22;;;;;;;43.37;20.47;;;-0.80;95.20;;;;;;5099132;28;20182;-73
2022/01/16 08:03:47;;;;;;;37.80;18.43;;;-0.70;95.00;;;;;;5090524;28;20267;-74
2022/01/16 08:06:16;;;;;;;41.43;18.50;;;-0.60;95.00;;;;;;5090134;28;20202;-74
2022/01/16 08:08:41;;;;;;;42.42;20.02;;;-0.40;95.00;;;;;;5089649;28;20175;-75
2022/01/16 08:11:09;;;;;;;42.00;19.53;;;-0.40;94.80;;;;;;5091180;28;20201;-74
2022/01/16 08:13:35;;;;;;;43.15;19.50;;;-0.20;94.80;;;;;;5089699;28;20167;-73
2022/01/16 08:16:06;;;;;;;46.08;19.45;;;-0.30;94.60;;;;;;5090949;28;20198;-74
2022/01/16 08:18:32;;;;;;;46.38;19.73;;;-0.50;94.50;;;;;;5091346;28;20177;-75
2022/01/16 08:20:58;;;;;;;45.63;20.77;;;-0.60;94.80;;;;;;5091310;28;20182;-73
2022/01/16 08:23:24;;;;;;;44.13;21.00;;;-0.70;95.10;;;;;;5091563;28;20179;-75
2022/01/16 08:25:51;;;;;;;40.30;19.38;;;-0.70;95.40;;;;;;5090229;28;21231;-74
2022/01/16 08:28:17;;;;;;;50.90;20.52;;;-0.60;95.50;;;;;;5091389;28;20184;-74
2022/01/16 08:30:43;;;;;;;43.58;21.35;;;-0.60;95.50;;;;;;5091136;28;20199;-74
2022/01/16 08:33:08;;;;;;;51.00;19.83;;;-0.60;95.40;;;;;;5091119;28;20203;-73
2022/01/16 08:35:34;;;;;;;46.23;21.20;;;-0.60;95.50;;;;;;5091124;28;20289;-72
2022/01/16 08:38:00;;;;;;;50.90;22.77;;;-0.50;95.60;;;;;;5090344;28;20186;-75
2022/01/16 08:40:26;;;;;;;51.87;22.00;;;-0.40;95.70;;;;;;5088508;28;20528;-71
2022/01/16 08:42:52;;;;;;;47.17;20.83;;;-0.30;95.70;;;;;;5087932;28;20184;-73
2022/01/16 08:45:18;;;;;;;42.63;20.48;;;-0.20;95.70;;;;;;5087326;28;20222;-72
2022/01/16 08:47:44;;;;;;;47.50;21.87;;;-0.10;95.60;;;;;;5088144;28;20187;-72
2022/01/16 08:50:11;;;;;;;38.05;19.10;;;0.00;95.30;;;;;;5087295;28;20923;-72
2022/01/16 08:52:38;;;;;;;41.45;19.75;;;0.10;94.70;;;;;;5087367;28;20211;-73
2022/01/16 08:55:05;;;;;;;42.42;20.67;;;0.30;94.50;;;;;;5087322;28;20219;-71
2022/01/16 08:57:31;;;;;;;47.05;21.25;;;0.40;94.20;;;;;;5087588;28;20175;-74
2022/01/16 08:59:57;;;;;;;47.40;21.80;;;0.50;93.70;;;;;;5087477;28;20178;-72
2022/01/16 09:02:23;;;;;;;40.55;21.08;;;0.50;93.20;;;;;;5085768;28;20183;-73
2022/01/16 09:04:49;;;;;;;46.80;21.30;;;0.60;93.10;;;;;;5085101;28;20247;-71
2022/01/16 09:07:15;;;;;;;40.33;21.27;;;0.60;93.00;;;;;;5087789;28;20439;-74
2022/01/16 09:09:41;;;;;;;42.95;20.38;;;0.70;92.80;;;;;;5087232;28;20237;-75
2022/01/16 09:12:08;;;;;;;46.95;20.83;;;0.80;92.70;;;;;;5086218;28;20328;-74
2022/01/16 09:14:33;;;;;;;41.72;20.13;;;0.80;92.60;;;;;;5087551;28;20913;-75
2022/01/16 09:16:59;;;;;;;39.37;20.30;;;0.80;92.20;;;;;;5087520;28;20202;-73
2022/01/16 09:19:25;;;;;;;46.23;19.93;;;0.70;92.00;;;;;;5087024;28;20179;-71
2022/01/16 09:21:50;;;;;;;40.20;19.60;;;0.60;91.90;;;;;;5088020;28;20559;-72
2022/01/16 09:24:16;;;;;;;40.37;19.87;;;0.70;92.10;;;;;;5086782;28;20448;-72
2022/01/16 09:26:42;;;;;;;37.33;19.90;;;0.80;92.10;;;;;;5087686;28;20722;-70
2022/01/16 09:29:08;;;;;;;43.10;19.47;;;0.90;91.70;;;;;;5086870;28;20180;-71
2022/01/16 09:31:33;;;;;;;37.07;18.40;;;1.00;91.60;;;;;;5087796;28;20211;-73
2022/01/16 09:33:59;;;;;;;41.23;19.97;;;1.10;91.50;;;;;;5088429;28;20175;-71
2022/01/16 09:36:25;;;;;;;43.25;21.35;;;1.20;91.30;;;;;;5088348;28;20623;-72
2022/01/16 09:38:51;;;;;;;43.72;21.20;;;1.30;90.70;;;;;;5088206;28;20214;-72
2022/01/16 09:41:18;;;;;;;44.43;20.80;;;1.30;90.30;;;;;;5084097;28;20203;-72
2022/01/16 09:43:43;;;;;;;40.10;19.27;;;1.30;90.10;;;;;;5095822;28;20187;-72
2022/01/16 09:46:09;;;;;;;37.13;18.67;;;1.40;89.70;;;;;;5100682;28;20681;-71
2022/01/16 09:48:35;;;;;;;41.97;20.77;;;1.50;89.70;;;;;;5103849;28;20222;-73
2022/01/16 09:51:01;;;;;;;37.93;19.00;;;1.60;89.50;;;;;;5106184;28;20527;-72
2022/01/16 09:53:27;;;;;;;41.78;18.95;;;1.70;89.20;;;;;;5106511;28;20412;-72
2022/01/16 09:55:53;;;;;;;38.28;18.02;;;1.70;89.00;;;;;;5093942;28;20241;-73
2022/01/16 09:58:22;;;;;;;39.80;20.70;;;1.80;88.60;;;;;;5089668;28;20183;-72
2022/01/16 10:00:50;;;;;;;38.47;19.23;;;1.90;88.10;;;;;;5090823;28;20421;-72
2022/01/16 10:03:43;;;;;;;44.70;21.08;;;1.80;87.80;;;;;;5093065;28;20180;-73
2022/01/16 10:06:14;;;;;;;49.28;22.63;;;1.80;88.10;;;;;;5090931;28;20588;-73
2022/01/16 10:08:41;;;;;;;41.50;20.42;;;1.80;88.30;;;;;;5090151;28;20191;-73
2022/01/16 10:11:28;;;;;;;46.33;20.50;;;1.60;88.60;;;;;;5090352;28;20215;-72
2022/01/16 10:14:02;;;;;;;34.47;19.88;;;1.50;89.20;;;;;;5085185;28;20189;-72
2022/01/16 10:16:31;;;;;;;44.38;21.33;;;1.60;89.70;;;;;;5092428;28;20209;-73
2022/01/16 10:18:58;;;;;;;46.53;22.65;;;1.80;89.90;;;;;;5095153;28;20240;-73
2022/01/16 10:21:38;;;;;;;39.00;19.88;;;1.90;89.60;;;;;;5097620;28;20183;-73
2022/01/16 10:24:20;;;;;;;47.40;21.20;;;2.10;89.00;;;;;;5090686;28;20187;-73
2022/01/16 10:26:48;;;;;;;37.58;19.23;;;2.20;88.40;;;;;;5090479;28;20471;-73
2022/01/16 10:29:16;;;;;;;36.22;19.63;;;2.40;87.60;;;;;;5090698;28;20653;-72
2022/01/16 10:31:42;;;;;;;36.20;20.92;;;2.40;87.30;;;;;;5091998;28;20203;-74
2022/01/16 10:34:28;;;;;;;38.78;19.48;;;2.50;86.90;;;;;;5092975;28;20601;-73
2022/01/16 10:36:54;;;;;;;40.67;21.10;;;2.50;86.60;;;;;;5083958;28;20254;-73
2022/01/16 10:39:20;;;;;;;45.65;22.10;;;2.50;86.50;;;;;;5089904;28;20179;-73
2022/01/16 10:42:05;;;;;;;45.03;21.00;;;2.60;86.80;;;;;;5090701;28;20529;-73
2022/01/16 10:44:31;;;;;;;38.40;20.55;;;2.70;87.00;;;;;;5087445;28;21236;-73
2022/01/16 10:46:57;;;;;;;43.70;21.13;;;2.90;87.00;;;;;;5091625;28;20218;-74
2022/01/16 10:49:23;;;;;;;39.60;20.57;;;3.20;86.90;;;;;;5092830;28;20176;-73
2022/01/16 10:52:09;;;;;;;41.57;20.77;;;3.40;84.70;;;;;;5089937;28;20986;-73
2022/01/16 10:54:40;;;;;;;46.92;22.13;;;3.40;83.30;;;;;;5090303;28;20901;-72
2022/01/16 10:57:21;;;;;;;41.17;20.80;;;3.40;82.70;;;;;;5090205;28;20217;-72
2022/01/16 10:59:47;;;;;;;44.90;21.15;;;3.10;83.30;;;;;;5090481;28;20424;-73
2022/01/16 11:02:13;;;;;;;45.90;20.50;;;2.90;83.80;;;;;;5089725;28;20183;-73
2022/01/16 11:04:39;;;;;;;43.70;21.77;;;3.00;85.00;;;;;;5089286;28;20435;-75
2022/01/16 11:07:06;;;;;;;48.90;21.73;;;3.00;85.20;;;;;;5090834;28;20456;-73
2022/01/16 11:09:32;;;;;;;53.87;23.40;;;3.00;85.00;;;;;;5089104;28;20437;-72
2022/01/16 11:11:59;;;;;;;44.55;21.63;;;2.80;84.70;;;;;;5091249;28;20528;-73
2022/01/16 11:14:29;;;;;;;47.20;21.60;;;2.70;85.60;;;;;;5091849;28;20187;-72
2022/01/16 11:16:56;;;;;;;50.55;23.10;;;2.80;86.20;;;;;;5091038;28;20195;-72
2022/01/16 11:19:24;;;;;;;44.90;21.03;;;3.00;86.30;;;;;;5091713;28;20230;-73
2022/01/16 11:21:54;;;;;;;38.30;20.37;;;3.20;85.60;;;;;;5089905;28;20432;-72
2022/01/16 11:24:48;;;;;;;44.67;21.80;;;3.20;84.70;;;;;;5090791;28;20478;-73
2022/01/16 11:27:17;;;;;;;43.00;21.40;;;3.30;84.60;;;;;;5090749;28;20912;-73
2022/01/16 11:29:43;;;;;;;47.27;22.97;;;3.30;84.40;;;;;;5090060;28;20460;-73
2022/01/16 11:32:09;;;;;;;56.40;23.93;;;3.40;84.70;;;;;;5090138;28;20994;-72
2022/01/16 11:34:36;;;;;;;50.27;23.33;;;3.50;85.00;;;;;;5088531;28;20452;-73
2022/01/16 11:37:02;;;;;;;47.70;22.17;;;3.60;84.30;;;;;;5090390;28;20440;-73
2022/01/16 11:39:35;;;;;;;42.73;20.87;;;3.70;84.60;;;;;;5086763;28;20475;-73
2022/01/16 11:42:03;;;;;;;44.97;23.20;;;3.80;84.00;;;;;;5084147;28;20420;-73
2022/01/16 11:44:31;;;;;;;45.20;21.30;;;3.90;83.30;;;;;;5090233;28;21171;-73
2022/01/16 11:46:59;;;;;;;44.10;21.40;;;3.80;83.10;;;;;;5090152;28;20502;-73
2022/01/16 11:49:32;;;;;;;47.23;22.13;;;3.80;83.60;;;;;;5088873;28;20446;-73
2022/01/16 11:52:11;;;;;;;47.70;22.50;;;3.90;83.60;;;;;;5098355;28;20509;-71
2022/01/16 11:54:45;;;;;;;54.03;24.20;;;3.90;83.80;;;;;;5098786;28;20401;-72
2022/01/16 11:57:25;;;;;;;45.57;21.50;;;3.80;84.10;;;;;;5090098;28;20787;-72
2022/01/16 12:00:13;;;;;;;49.50;23.27;;;3.70;84.60;;;;;;5089607;28;20519;-72
2022/01/16 12:02:44;;;;;;;48.40;22.53;;;3.40;85.30;;;;;;5088458;28;20433;-74
2022/01/16 12:05:11;;;;;;;41.63;24.40;;;3.20;86.60;;;;;;5084795;28;20485;-73
2022/01/16 12:07:36;;;;;;;52.20;23.20;;;3.20;87.10;;;;;;5087613;28;20881;-73
2022/01/16 12:10:06;;;;;;;57.10;23.90;;;3.00;88.40;;;;;;5089220;28;20413;-72
2022/01/16 12:12:31;;;;;;;57.17;24.03;;;2.90;90.10;;;;;;5089862;28;20202;-72
2022/01/16 12:15:04;;;;;;;55.77;24.87;;;2.70;91.20;;;;;;5089596;28;20432;-73
2022/01/16 12:17:41;;;;;;;55.13;23.67;;;2.70;91.50;;;;;;5088583;28;20183;-73
2022/01/16 12:20:13;;;;;;;48.95;21.10;;;2.80;91.70;;;;;;5083458;28;20186;-73
2022/01/16 12:22:59;;;;;;;51.97;23.90;;;2.90;91.50;;;;;;5090382;28;20187;-73
2022/01/16 12:25:42;;;;;;;48.80;21.05;;;2.90;91.30;;;;;;5087479;28;20440;-73
2022/01/16 12:28:11;;;;;;;50.45;23.60;;;3.00;91.30;;;;;;5088876;28;20681;-73
2022/01/16 12:30:59;;;;;;;50.47;20.80;;;3.10;90.70;;;;;;5089033;28;20905;-72
2022/01/16 12:33:50;;;;;;;41.93;20.37;;;3.10;90.60;;;;;;5088642;28;20417;-73
2022/01/16 12:36:33;;;;;;;39.90;18.42;;;3.10;90.60;;;;;;5083164;28;20429;-73
2022/01/16 12:39:11;;;;;;;45.93;19.97;;;3.20;90.10;;;;;;5088953;28;20228;-72
2022/01/16 12:41:46;;;;;;;37.97;18.10;;;3.30;89.60;;;;;;5086377;28;20420;-73
2022/01/16 12:44:16;;;;;;;38.57;18.73;;;3.30;89.50;;;;;;5088119;28;20480;-73
2022/01/16 12:46:48;;;;;;;41.77;19.07;;;3.50;89.20;;;;;;5090631;28;20541;-73
2022/01/16 12:49:20;;;;;;;40.17;16.90;;;3.70;88.40;;;;;;5085373;28;20796;-72
2022/01/16 12:51:49;;;;;;;36.03;16.07;;;3.70;87.60;;;;;;5088887;28;20464;-72
2022/01/16 12:54:17;;;;;;;29.57;14.47;;;3.80;86.90;;;;;;5094486;28;20413;-75
2022/01/16 12:56:48;;;;;;;30.03;12.77;;;3.80;86.20;;;;;;5089822;28;20875;-74
2022/01/16 12:59:20;;;;;;;28.67;12.70;;;3.80;84.60;;;;;;5089344;28;21116;-72
2022/01/16 13:01:55;;;;;;;26.10;12.40;;;3.90;84.70;;;;;;5087914;28;20540;-72
2022/01/16 13:04:32;;;;;;;31.80;14.03;;;3.90;84.60;;;;;;5084718;28;20421;-73
2022/01/16 13:07:01;;;;;;;28.67;12.43;;;3.90;84.60;;;;;;5084760;28;20457;-74
2022/01/16 13:09:28;;;;;;;31.57;14.27;;;3.90;84.40;;;;;;5088806;28;20425;-74
2022/01/16 13:12:01;;;;;;;24.30;11.77;;;3.80;84.40;;;;;;5090283;28;20460;-75